Nisku, Canada
Current Conditions -  °F | °C
As of 1:00 AM on Monday 26 Jan 2015 (Local Time) from CYEG Reporting Station
Broken Clouds Broken Clouds  
Wind Chill: -2°   Ceiling: 12000
Heat Index:   Visibility: 15mi
Dew Point: -2°   Wind: 7mph
Humidity: 81%   Direction: 190°S
Pressure: 29.85"   Gusts: NA
Location:  53.33°N, 113.53°W
Report Text: CYEG 260800Z 19006KT 15SM SCT095 BKN120 01/M02 A2985 RMK AC3AC3 SLP133
Loading
Personal Weather Stations






























Interactive Weather Map New forecast layout! Learn more

10-Day Weather Forecast

Advertisements
Track Severe Weather on mobile